createdAt,value
2022-08-24T00:00:58.049Z,101438.13
2022-08-24T00:04:59.766Z,101442.81
2022-08-24T00:09:01.306Z,101442.09
2022-08-24T00:13:02.902Z,101439.63
2022-08-24T00:17:04.934Z,101433.94
2022-08-24T00:21:08.126Z,101427.91
2022-08-24T00:25:11.817Z,101430.41
2022-08-24T00:29:17.431Z,101434.84
2022-08-24T00:33:18.918Z,101441.16
2022-08-24T00:37:20.468Z,101447.63
2022-08-24T00:41:22.584Z,101450.41
2022-08-24T00:45:27.229Z,101453.16
2022-08-24T00:49:45.959Z,101456.47
2022-08-24T00:53:53.005Z,101445.19
2022-08-24T00:57:59.699Z,101452.81
2022-08-24T01:02:15.267Z,101439.25
2022-08-24T01:06:17.497Z,101455.69
2022-08-24T01:10:25.823Z,101448.75
2022-08-24T01:14:27.344Z,101447.38
2022-08-24T01:18:47.550Z,101447.53
2022-08-24T01:23:13.552Z,101452.69
2022-08-24T01:27:15.593Z,101445.41
2022-08-24T01:31:22.091Z,101444.25
2022-08-24T01:35:24.325Z,101443.38
2022-08-24T01:39:33.851Z,101444.56
2022-08-24T01:43:37.397Z,101449.81
2022-08-24T01:47:39.013Z,101445.81
2022-08-24T01:51:42.330Z,101451.00
2022-08-24T01:55:44.777Z,101453.16
2022-08-24T01:59:46.252Z,101446.47
2022-08-24T02:03:51.843Z,101458.78
2022-08-24T02:07:53.619Z,101451.97
2022-08-24T02:11:55.391Z,101466.25
2022-08-24T02:15:57.436Z,101471.00
2022-08-24T02:19:58.910Z,101464.19
2022-08-24T02:24:00.363Z,101466.94
2022-08-24T02:28:01.993Z,101468.38
2022-08-24T02:32:04.702Z,101464.50
2022-08-24T02:36:10.460Z,101466.19
2022-08-24T02:40:28.154Z,101462.66
2022-08-24T02:44:29.655Z,101465.94
2022-08-24T02:48:31.114Z,101456.69
2022-08-24T02:52:32.623Z,101453.16
2022-08-24T02:56:34.070Z,101468.53
2022-08-24T03:00:38.427Z,101465.78
2022-08-24T03:04:40.872Z,101458.84
2022-08-24T03:08:42.351Z,101458.97
2022-08-24T03:12:50.416Z,101461.94
2022-08-24T03:16:51.855Z,101466.00
2022-08-24T03:20:54.843Z,101466.03
2022-08-24T03:24:56.550Z,101469.28
2022-08-24T03:28:59.041Z,101467.59
2022-08-24T03:33:01.504Z,101471.25
2022-08-24T03:37:02.997Z,101469.22
2022-08-24T03:41:04.565Z,101466.44
2022-08-24T03:45:06.985Z,101469.28
2022-08-24T03:49:10.077Z,101472.09
2022-08-24T03:53:11.735Z,101472.88
2022-08-24T03:57:14.409Z,101478.09
2022-08-24T04:01:17.666Z,101475.69
2022-08-24T04:05:19.427Z,101479.63
2022-08-24T04:09:20.892Z,101486.91
2022-08-24T04:13:22.366Z,101484.47
2022-08-24T04:17:23.839Z,101496.31
2022-08-24T04:21:32.067Z,101495.91
2022-08-24T04:25:45.220Z,101493.56
2022-08-24T04:29:46.687Z,101493.56
2022-08-24T04:33:53.893Z,101491.47
2022-08-24T04:37:55.635Z,101504.78
2022-08-24T04:41:57.548Z,101504.78
2022-08-24T04:46:06.505Z,101508.84
2022-08-24T04:50:08.385Z,101522.53
2022-08-24T04:54:09.867Z,101509.03
2022-08-24T04:58:13.461Z,101513.00
2022-08-24T05:02:14.970Z,101514.97
2022-08-24T05:06:18.757Z,101524.91
2022-08-24T05:10:21.027Z,101534.97
2022-08-24T05:14:25.667Z,101540.78
2022-08-24T05:18:30.172Z,101555.25
2022-08-24T05:22:31.794Z,101552.88
2022-08-24T05:26:34.090Z,101559.22
2022-08-24T05:30:40.594Z,101561.09
2022-08-24T05:34:44.540Z,101551.09
2022-08-24T05:38:47.867Z,101548.19
2022-08-24T05:42:49.604Z,101562.88
2022-08-24T05:46:51.377Z,101566.38
2022-08-24T05:50:55.004Z,101566.34
2022-08-24T05:54:59.148Z,101565.63
2022-08-24T05:59:00.860Z,101577.34
2022-08-24T06:03:02.473Z,101568.06
2022-08-24T06:07:05.449Z,101566.69
2022-08-24T06:11:06.995Z,101562.53
2022-08-24T06:15:09.607Z,101560.63
2022-08-24T06:19:13.867Z,101569.59
2022-08-24T06:23:15.393Z,101570.88
2022-08-24T06:27:23.514Z,101572.09
2022-08-24T06:31:28.924Z,101574.09
2022-08-24T06:35:44.847Z,101582.63
2022-08-24T06:39:48.988Z,101574.22
2022-08-24T06:43:57.184Z,101579.38
2022-08-24T06:47:58.810Z,101581.84
2022-08-24T06:52:00.361Z,101584.72
2022-08-24T06:56:02.408Z,101574.66
2022-08-24T07:00:05.006Z,101581.16
2022-08-24T07:04:06.463Z,101589.16
2022-08-24T07:08:08.144Z,101597.16
2022-08-24T07:12:09.700Z,101593.13
2022-08-24T07:16:11.242Z,101584.38
2022-08-24T07:20:12.829Z,101586.78
2022-08-24T07:24:14.395Z,101582.31
2022-08-24T07:28:16.296Z,101595.97
2022-08-24T07:32:18.172Z,101594.69
2022-08-24T07:36:22.478Z,101604.38
2022-08-24T07:40:26.949Z,101601.16
2022-08-24T07:44:28.512Z,101599.53
2022-08-24T07:48:32.022Z,101595.09
2022-08-24T07:52:35.770Z,101599.41
2022-08-24T07:56:37.216Z,101600.59
2022-08-24T08:00:38.748Z,101602.63
2022-08-24T08:04:41.476Z,101606.94
2022-08-24T08:08:43.443Z,101610.53
2022-08-24T08:12:50.237Z,101610.56
2022-08-24T08:16:53.997Z,101606.84
2022-08-24T08:20:55.588Z,101613.53
2022-08-24T08:24:57.033Z,101618.38
2022-08-24T08:28:58.472Z,101609.59
2022-08-24T08:33:00.006Z,101611.09
2022-08-24T08:37:03.569Z,101616.75
2022-08-24T08:41:05.412Z,101620.81
2022-08-24T08:45:35.352Z,101626.44
2022-08-24T08:50:12.959Z,101626.63
2022-08-24T08:54:30.357Z,101625.94
2022-08-24T08:59:07.290Z,101631.94
2022-08-24T09:03:17.356Z,101628.81
2022-08-24T09:07:27.486Z,101629.34
2022-08-24T09:11:41.529Z,101632.50
2022-08-24T09:16:08.407Z,101640.34
2022-08-24T09:20:56.087Z,101635.94
2022-08-24T09:25:09.766Z,101637.47
2022-08-24T09:29:13.926Z,101628.34
2022-08-24T09:33:21.148Z,101628.50
2022-08-24T09:37:56.196Z,101632.16
2022-08-24T09:42:18.932Z,101628.78
2022-08-24T09:46:43.210Z,101627.63
2022-08-24T09:51:32.648Z,101626.31
2022-08-24T09:55:37.274Z,101629.88
2022-08-24T10:00:09.538Z,101628.53
2022-08-24T10:04:36.648Z,101616.28
2022-08-24T10:09:12.422Z,101624.25
2022-08-24T10:13:43.253Z,101608.09
2022-08-24T10:18:22.992Z,101605.16
2022-08-24T10:22:49.271Z,101612.94
2022-08-24T10:27:15.631Z,101609.94
2022-08-24T10:31:31.822Z,101612.94
2022-08-24T10:36:04.734Z,101608.31
2022-08-24T10:40:10.302Z,101602.03
2022-08-24T10:44:40.722Z,101599.41
2022-08-24T10:48:53.576Z,101601.94
2022-08-24T10:53:13.815Z,101596.63
2022-08-24T10:57:26.555Z,101605.22
2022-08-24T11:01:31.907Z,101601.41
2022-08-24T11:05:42.074Z,101602.66
2022-08-24T11:09:45.167Z,101607.38
2022-08-24T11:13:59.166Z,101601.16
2022-08-24T11:18:04.281Z,101597.72
2022-08-24T11:22:21.469Z,101593.53
2022-08-24T11:26:25.741Z,101599.00
2022-08-24T11:30:29.527Z,101597.13
2022-08-24T11:34:38.079Z,101598.94
2022-08-24T11:38:39.504Z,101598.28
2022-08-24T11:42:53.497Z,101594.22
2022-08-24T11:47:03.649Z,101588.91
2022-08-24T11:51:13.639Z,101584.19
2022-08-24T11:55:24.577Z,101576.97
2022-08-24T11:59:50.246Z,101584.00
2022-08-24T12:04:29.435Z,101577.41
2022-08-24T12:08:45.874Z,101583.66
2022-08-24T12:13:09.360Z,101580.16
2022-08-24T12:17:26.498Z,101583.34
2022-08-24T12:21:34.409Z,101581.91
2022-08-24T12:25:55.190Z,101576.28
2022-08-24T12:30:12.309Z,101571.91
2022-08-24T12:34:24.775Z,101565.19
2022-08-24T12:38:33.375Z,101566.75
2022-08-24T12:42:51.282Z,101559.72
2022-08-24T12:46:54.480Z,101553.19
2022-08-24T12:51:08.153Z,101553.97
2022-08-24T12:55:35.626Z,101556.25
2022-08-24T12:59:39.487Z,101552.78
2022-08-24T13:03:43.825Z,101556.03
2022-08-24T13:07:48.873Z,101558.53
2022-08-24T13:11:50.317Z,101557.28
2022-08-24T13:15:56.285Z,101561.63
2022-08-24T13:20:20.026Z,101557.59
2022-08-24T13:24:30.645Z,101553.75
2022-08-24T13:28:48.542Z,101555.09
2022-08-24T13:33:01.051Z,101556.25
2022-08-24T13:37:14.212Z,101545.84
2022-08-24T13:41:37.427Z,101547.75
2022-08-24T13:45:42.661Z,101546.72
2022-08-24T13:50:03.021Z,101548.91
2022-08-24T13:54:23.940Z,101542.16
2022-08-24T13:58:45.139Z,101544.00
2022-08-24T14:03:18.721Z,101541.41
2022-08-24T14:07:59.871Z,101541.44
2022-08-24T14:12:07.313Z,101539.91
2022-08-24T14:16:46.484Z,101534.75
2022-08-24T14:20:54.099Z,101525.84
2022-08-24T14:25:17.255Z,101528.53
2022-08-24T14:29:18.642Z,101537.75
2022-08-24T14:33:30.616Z,101534.69
2022-08-24T14:38:05.058Z,101534.94
2022-08-24T14:42:51.718Z,101524.28
2022-08-24T14:47:02.339Z,101518.78
2022-08-24T14:51:32.965Z,101525.94
2022-08-24T14:55:53.291Z,101532.06
2022-08-24T15:00:13.729Z,101524.75
2022-08-24T15:04:37.841Z,101519.44
2022-08-24T15:08:43.135Z,101512.25
2022-08-24T15:12:51.571Z,101513.25
2022-08-24T15:17:03.419Z,101514.44
2022-08-24T15:21:26.729Z,101507.59
2022-08-24T15:26:04.783Z,101505.81
2022-08-24T15:30:20.642Z,101500.91
2022-08-24T15:34:40.396Z,101504.81
2022-08-24T15:38:42.406Z,101499.72
2022-08-24T15:42:44.385Z,101501.03
2022-08-24T15:47:00.581Z,101506.41
2022-08-24T15:51:02.562Z,101499.13
2022-08-24T15:55:06.460Z,101494.91
2022-08-24T15:59:13.903Z,101490.03
2022-08-24T16:03:48.660Z,101496.44
2022-08-24T16:08:02.391Z,101490.34
2022-08-24T16:12:12.720Z,101489.19
2022-08-24T16:16:16.794Z,101487.81
2022-08-24T16:20:24.596Z,101493.09
2022-08-24T16:24:28.608Z,101490.47
2022-08-24T16:28:36.042Z,101486.75
2022-08-24T16:32:54.026Z,101478.88
2022-08-24T16:36:56.714Z,101486.44
2022-08-24T16:41:00.623Z,101493.13
2022-08-24T16:45:04.604Z,101495.63
2022-08-24T16:49:12.566Z,101495.75
2022-08-24T16:53:14.301Z,101495.69
2022-08-24T16:57:19.687Z,101495.53
2022-08-24T17:01:21.293Z,101490.28
2022-08-24T17:05:23.727Z,101488.66
2022-08-24T17:09:25.292Z,101493.22
2022-08-24T17:13:48.390Z,101501.34
2022-08-24T17:17:56.302Z,101496.00
2022-08-24T17:21:57.873Z,101497.59
2022-08-24T17:26:00.230Z,101503.94
2022-08-24T17:30:04.041Z,101516.66
2022-08-24T17:34:08.023Z,101515.63
2022-08-24T17:38:09.535Z,101510.72
2022-08-24T17:42:33.736Z,101513.69
2022-08-24T17:46:32.995Z,101520.19
2022-08-24T17:50:35.695Z,101522.19
2022-08-24T17:54:37.186Z,101531.06
2022-08-24T17:58:58.654Z,101523.09
2022-08-24T18:03:00.160Z,101530.34
2022-08-24T18:07:06.651Z,101536.59
2022-08-24T18:11:13.119Z,101531.38
2022-08-24T18:15:14.716Z,101546.34
2022-08-24T18:19:16.371Z,101545.66
2022-08-24T18:23:21.220Z,101553.69
2022-08-24T18:27:29.841Z,101555.97
2022-08-24T18:31:31.712Z,101566.31
2022-08-24T18:35:34.512Z,101565.38
2022-08-24T18:39:36.550Z,101570.78
2022-08-24T18:43:38.245Z,101574.47
2022-08-24T18:47:40.111Z,101575.09
2022-08-24T18:51:43.007Z,101579.56
2022-08-24T18:55:46.302Z,101575.97
2022-08-24T18:59:47.913Z,101593.44
2022-08-24T19:03:50.366Z,101592.22
2022-08-24T19:07:53.259Z,101583.34
2022-08-24T19:11:54.830Z,101590.09
2022-08-24T19:15:58.180Z,101592.50
2022-08-24T19:19:59.728Z,101591.63
2022-08-24T19:24:02.493Z,101589.03
2022-08-24T19:28:06.246Z,101585.44
2022-08-24T19:32:13.880Z,101583.88
2022-08-24T19:36:23.811Z,101587.69
2022-08-24T19:40:25.355Z,101583.28
2022-08-24T19:44:51.999Z,101580.34
2022-08-24T19:48:54.027Z,101585.06
2022-08-24T19:52:58.498Z,101590.09
2022-08-24T19:57:01.044Z,101589.09
2022-08-24T20:01:11.598Z,101594.38
2022-08-24T20:05:13.587Z,101588.44
2022-08-24T20:09:15.119Z,101590.47
2022-08-24T20:13:17.056Z,101592.91
2022-08-24T20:17:18.517Z,101591.09
2022-08-24T20:21:29.803Z,101589.53
2022-08-24T20:25:33.882Z,101601.38
2022-08-24T20:29:35.381Z,101606.06
2022-08-24T20:33:36.971Z,101603.06
2022-08-24T20:37:41.303Z,101610.00
2022-08-24T20:41:42.761Z,101612.69
2022-08-24T20:45:45.376Z,101614.00
2022-08-24T20:49:47.899Z,101603.28
2022-08-24T20:53:49.353Z,101605.50
2022-08-24T20:57:55.881Z,101605.00
2022-08-24T21:01:57.345Z,101599.84
2022-08-24T21:05:59.330Z,101608.88
2022-08-24T21:10:00.979Z,101596.91
2022-08-24T21:14:06.023Z,101599.81
2022-08-24T21:18:07.583Z,101598.94
2022-08-24T21:22:09.489Z,101599.59
2022-08-24T21:26:14.177Z,101596.59
2022-08-24T21:30:19.543Z,101599.38
2022-08-24T21:34:39.710Z,101597.44
2022-08-24T21:38:44.701Z,101608.06
2022-08-24T21:42:47.010Z,101608.75
2022-08-24T21:46:50.458Z,101608.25
2022-08-24T21:50:52.051Z,101610.44
2022-08-24T21:54:56.289Z,101614.06
2022-08-24T21:58:58.783Z,101621.16
2022-08-24T22:03:00.501Z,101624.69
2022-08-24T22:07:02.437Z,101621.84
2022-08-24T22:11:05.100Z,101614.13
2022-08-24T22:15:09.076Z,101621.16
2022-08-24T22:19:11.790Z,101615.78
2022-08-24T22:23:13.396Z,101615.31
2022-08-24T22:27:14.876Z,101619.84
2022-08-24T22:31:35.949Z,101610.00
2022-08-24T22:35:44.765Z,101607.50
2022-08-24T22:39:47.052Z,101612.94
2022-08-24T22:44:07.918Z,101610.44
2022-08-24T22:48:09.584Z,101613.22
2022-08-24T22:52:12.981Z,101606.03
2022-08-24T22:56:17.240Z,101602.47
2022-08-24T23:00:19.035Z,101603.91
2022-08-24T23:04:23.871Z,101592.75
2022-08-24T23:08:25.384Z,101584.09
2022-08-24T23:12:28.484Z,101588.50
2022-08-24T23:16:32.098Z,101592.38
2022-08-24T23:20:33.568Z,101582.31
2022-08-24T23:24:35.902Z,101580.38
2022-08-24T23:28:37.469Z,101581.97
2022-08-24T23:32:40.118Z,101579.53
2022-08-24T23:36:43.095Z,101580.69
2022-08-24T23:40:44.764Z,101578.94
2022-08-24T23:44:46.868Z,101580.84
2022-08-24T23:48:55.463Z,101583.56
2022-08-24T23:52:57.716Z,101576.47
2022-08-24T23:56:59.186Z,101575.25
